Time;durP1;ratioP1;P1;durP2;ratioP2;P2;SDS_P1;SDS_P2;PMS_P1;PMS_P2;Temp;Humidity;BMP_temperature;BMP_pressure;BME280_temperature;BME280_humidity;BME280_pressure;Samples;Min_cycle;Max_cycle;Signal;HPM_P1;HPM_P2
2022/01/31 00:01:30;;;;;;;12.90;4.47;;;;;;;;;;6214400;23;20635;-92
2022/01/31 00:03:57;;;;;;;11.40;4.50;;;;;;;;;;6214059;23;20711;-93
2022/01/31 00:06:24;;;;;;;9.03;4.87;;;;;;;;;;6215777;23;20185;-93
2022/01/31 00:08:52;;;;;;;10.03;4.63;;;;;;;;;;6216507;23;20395;-93
2022/01/31 00:11:21;;;;;;;7.33;4.77;;;;;;;;;;6216056;23;20178;-92
2022/01/31 00:13:58;;;;;;;8.57;4.07;;;;;;;;;;6215952;23;20514;-92
2022/01/31 00:16:31;;;;;;;8.10;4.90;;;;;;;;;;6215931;23;20178;-92
2022/01/31 00:19:00;;;;;;;6.27;4.10;;;;;;;;;;6216483;23;20194;-93
2022/01/31 00:21:28;;;;;;;8.07;5.13;;;;;;;;;;6216387;23;20712;-92
2022/01/31 00:23:56;;;;;;;7.03;4.90;;;;;;;;;;6215990;23;20193;-92
2022/01/31 00:26:23;;;;;;;9.47;5.30;;;;;;;;;;6216335;23;20173;-92
2022/01/31 00:28:51;;;;;;;7.37;5.67;;;;;;;;;;6215997;23;20516;-92
2022/01/31 00:31:18;;;;;;;9.07;4.77;;;;;;;;;;6216163;23;20182;-92
2022/01/31 00:33:46;;;;;;;8.20;5.30;;;;;;;;;;6215853;23;20190;-92
2022/01/31 00:36:14;;;;;;;11.47;4.60;;;;;;;;;;6216206;23;20174;-92
2022/01/31 00:38:42;;;;;;;9.63;4.40;;;;;;;;;;6216127;23;20197;-92
2022/01/31 00:41:10;;;;;;;15.27;5.20;;;;;;;;;;6216001;23;20174;-92
2022/01/31 00:43:38;;;;;;;16.10;6.07;;;;;;;;;;6215426;23;20181;-91
2022/01/31 00:46:11;;;;;;;8.57;4.87;;;;;;;;;;6215781;23;20185;-90
2022/01/31 00:48:42;;;;;;;12.13;5.33;;;;;;;;;;6215910;23;20170;-91
2022/01/31 00:51:10;;;;;;;6.37;3.93;;;;;;;;;;6215854;23;20181;-91
2022/01/31 00:53:40;;;;;;;6.83;3.90;;;;;;;;;;6215781;23;20229;-91
2022/01/31 00:56:07;;;;;;;7.80;4.40;;;;;;;;;;6215718;23;20637;-91
2022/01/31 00:58:34;;;;;;;10.20;4.60;;;;;;;;;;6215619;23;20196;-91
2022/01/31 01:01:02;;;;;;;10.20;4.70;;;;;;;;;;6215993;23;20176;-91
2022/01/31 01:03:29;;;;;;;12.87;5.67;;;;;;;;;;6215615;23;20205;-91
2022/01/31 01:05:57;;;;;;;17.57;5.80;;;;;;;;;;6216008;23;20174;-91
2022/01/31 01:08:24;;;;;;;10.40;5.60;;;;;;;;;;6215898;23;20224;-90
2022/01/31 01:10:53;;;;;;;14.90;6.07;;;;;;;;;;6215975;23;20253;-91
2022/01/31 01:13:21;;;;;;;15.13;6.70;;;;;;;;;;6215944;23;20180;-91
2022/01/31 01:15:48;;;;;;;11.67;6.17;;;;;;;;;;6215907;23;20197;-93
2022/01/31 01:18:18;;;;;;;11.30;5.90;;;;;;;;;;6215224;23;20194;-91
2022/01/31 01:21:03;;;;;;;8.30;5.00;;;;;;;;;;6215297;23;20178;-91
2022/01/31 01:23:31;;;;;;;11.03;5.77;;;;;;;;;;6215622;23;20189;-91
2022/01/31 01:26:00;;;;;;;8.47;5.10;;;;;;;;;;6215968;23;20197;-93
2022/01/31 01:28:27;;;;;;;8.50;4.93;;;;;;;;;;6216439;23;20170;-91
2022/01/31 01:30:56;;;;;;;9.70;5.23;;;;;;;;;;6215962;23;20178;-91
2022/01/31 05:41:07;;;;;;;7.03;2.40;;;;;;;;;;6124178;23;20189;-92
2022/01/31 05:43:35;;;;;;;7.90;2.10;;;;;;;;;;6157515;23;20195;-91
2022/01/31 05:46:08;;;;;;;6.40;1.90;;;;;;;;;;6156469;23;20186;-91
2022/01/31 05:48:35;;;;;;;7.37;2.93;;;;;;;;;;6157306;23;20823;-92
2022/01/31 05:51:03;;;;;;;11.00;1.90;;;;;;;;;;6156745;23;20179;-92
2022/01/31 05:53:31;;;;;;;8.03;2.13;;;;;;;;;;6156338;23;20187;-91
2022/01/31 05:55:58;;;;;;;5.57;2.33;;;;;;;;;;6156728;23;20250;-91
2022/01/31 05:58:27;;;;;;;6.33;2.20;;;;;;;;;;6155965;23;20176;-91
2022/01/31 06:00:54;;;;;;;3.20;2.03;;;;;;;;;;6155452;23;20179;-91
2022/01/31 06:03:21;;;;;;;3.80;2.10;;;;;;;;;;6154970;23;20196;-91
2022/01/31 06:05:49;;;;;;;6.90;2.33;;;;;;;;;;6154882;23;20199;-91
2022/01/31 06:08:16;;;;;;;6.60;1.90;;;;;;;;;;6155577;23;20187;-91
2022/01/31 06:10:45;;;;;;;3.13;1.70;;;;;;;;;;6155497;23;20600;-91
2022/01/31 06:13:13;;;;;;;8.20;2.10;;;;;;;;;;6155200;23;20179;-91
2022/01/31 06:15:41;;;;;;;4.17;2.23;;;;;;;;;;6155294;23;20262;-90
2022/01/31 06:18:09;;;;;;;3.53;1.90;;;;;;;;;;6155342;23;20182;-90
2022/01/31 06:20:36;;;;;;;7.63;2.30;;;;;;;;;;6155515;23;20647;-91
2022/01/31 06:23:03;;;;;;;6.13;2.33;;;;;;;;;;6175599;23;20164;-89
2022/01/31 06:25:31;;;;;;;7.17;2.40;;;;;;;;;;6180073;23;20507;-88
2022/01/31 06:27:58;;;;;;;6.50;1.77;;;;;;;;;;6164099;23;20204;-90
2022/01/31 06:30:26;;;;;;;9.83;2.37;;;;;;;;;;6155777;23;20258;-91
2022/01/31 06:32:56;;;;;;;8.90;2.43;;;;;;;;;;6155033;23;20241;-91
2022/01/31 06:35:23;;;;;;;8.47;2.37;;;;;;;;;;6155454;23;20222;-90
2022/01/31 06:37:50;;;;;;;5.47;1.73;;;;;;;;;;6158682;23;20190;-91
2022/01/31 06:40:18;;;;;;;7.33;2.27;;;;;;;;;;6160128;23;20199;-91
2022/01/31 06:42:45;;;;;;;5.10;1.50;;;;;;;;;;6155725;23;20182;-91
2022/01/31 06:45:14;;;;;;;2.50;1.30;;;;;;;;;;6154405;23;20203;-90
2022/01/31 06:47:41;;;;;;;3.90;1.90;;;;;;;;;;6154424;23;20186;-90
2022/01/31 06:50:10;;;;;;;9.23;2.37;;;;;;;;;;6154335;23;20177;-91
2022/01/31 06:52:38;;;;;;;5.20;1.83;;;;;;;;;;6154249;23;20180;-91
2022/01/31 06:55:07;;;;;;;8.50;2.13;;;;;;;;;;6153592;23;20196;-90
2022/01/31 06:57:35;;;;;;;5.83;1.80;;;;;;;;;;6154627;23;20234;-91
2022/01/31 07:00:02;;;;;;;5.07;2.00;;;;;;;;;;6154478;23;20274;-92
2022/01/31 07:02:30;;;;;;;2.97;1.90;;;;;;;;;;6154503;23;20180;-90
2022/01/31 07:04:57;;;;;;;7.50;1.70;;;;;;;;;;6154903;23;20713;-92
2022/01/31 07:07:26;;;;;;;2.93;1.77;;;;;;;;;;6154714;23;20686;-92
2022/01/31 07:09:53;;;;;;;8.67;2.23;;;;;;;;;;6156245;23;20238;-92
2022/01/31 07:12:23;;;;;;;5.50;1.70;;;;;;;;;;6154194;23;20179;-92
2022/01/31 07:14:51;;;;;;;5.37;1.50;;;;;;;;;;6153896;23;20226;-91
2022/01/31 07:17:18;;;;;;;2.90;1.70;;;;;;;;;;6155702;23;20179;-92
2022/01/31 07:19:46;;;;;;;3.90;1.50;;;;;;;;;;6156173;23;20195;-92
2022/01/31 07:22:14;;;;;;;5.60;2.10;;;;;;;;;;6158278;23;20199;-91
2022/01/31 07:24:47;;;;;;;4.97;1.70;;;;;;;;;;6159766;23;20266;-91
2022/01/31 07:27:15;;;;;;;4.07;2.17;;;;;;;;;;6154706;23;20175;-90
2022/01/31 07:29:43;;;;;;;4.47;2.43;;;;;;;;;;6155557;23;20521;-90
2022/01/31 07:32:11;;;;;;;6.60;2.40;;;;;;;;;;6154532;23;20515;-91
2022/01/31 07:34:40;;;;;;;6.63;1.80;;;;;;;;;;6154389;23;20564;-91
2022/01/31 07:37:07;;;;;;;3.67;1.80;;;;;;;;;;6157846;23;20275;-94
2022/01/31 07:39:34;;;;;;;4.97;1.83;;;;;;;;;;6157506;23;20201;-91
2022/01/31 07:42:03;;;;;;;2.07;1.57;;;;;;;;;;6157337;23;20190;-93
2022/01/31 07:44:31;;;;;;;3.30;1.53;;;;;;;;;;6158446;23;20195;-93
2022/01/31 07:47:01;;;;;;;8.67;2.20;;;;;;;;;;6156555;23;20176;-93
2022/01/31 07:49:28;;;;;;;4.47;2.27;;;;;;;;;;6158030;23;20202;-92
2022/01/31 07:51:56;;;;;;;5.30;2.10;;;;;;;;;;6158607;23;20175;-93
2022/01/31 07:54:24;;;;;;;5.63;2.30;;;;;;;;;;6157807;23;20199;-93
2022/01/31 07:56:51;;;;;;;2.87;1.70;;;;;;;;;;6156479;23;20254;-92
2022/01/31 07:59:21;;;;;;;2.97;1.70;;;;;;;;;;6157485;23;20336;-93
2022/01/31 08:01:48;;;;;;;3.33;1.63;;;;;;;;;;6157613;23;20183;-92
2022/01/31 08:04:15;;;;;;;4.77;2.00;;;;;;;;;;6160600;23;20199;-92
2022/01/31 08:06:43;;;;;;;3.43;1.77;;;;;;;;;;6156596;23;20179;-92
2022/01/31 08:09:10;;;;;;;8.07;1.93;;;;;;;;;;6157351;23;20548;-93
2022/01/31 08:11:37;;;;;;;3.23;1.27;;;;;;;;;;6155820;23;20236;-91
2022/01/31 08:14:09;;;;;;;4.07;2.03;;;;;;;;;;6156830;23;20202;-93
2022/01/31 08:16:39;;;;;;;3.50;1.77;;;;;;;;;;6156782;23;20247;-92
2022/01/31 08:19:08;;;;;;;6.87;2.27;;;;;;;;;;6154992;23;20179;-92
2022/01/31 08:21:36;;;;;;;1.87;1.67;;;;;;;;;;6156382;23;20246;-93
2022/01/31 08:24:04;;;;;;;3.13;2.07;;;;;;;;;;6155308;23;20203;-92
2022/01/31 08:26:31;;;;;;;6.13;2.37;;;;;;;;;;6157019;23;20175;-93
2022/01/31 08:29:02;;;;;;;2.70;1.90;;;;;;;;;;6155542;23;20229;-92
2022/01/31 08:31:33;;;;;;;2.27;1.83;;;;;;;;;;6156306;23;20262;-92
2022/01/31 08:34:07;;;;;;;4.13;2.10;;;;;;;;;;6156148;23;20195;-93
2022/01/31 08:36:35;;;;;;;2.00;1.67;;;;;;;;;;6155492;23;20222;-92
2022/01/31 08:39:03;;;;;;;2.60;1.60;;;;;;;;;;6156809;23;20502;-92
2022/01/31 08:41:35;;;;;;;4.27;2.77;;;;;;;;;;6157078;23;20191;-93
2022/01/31 08:44:03;;;;;;;2.37;1.70;;;;;;;;;;6155190;23;20199;-92
2022/01/31 08:46:33;;;;;;;2.03;1.90;;;;;;;;;;6156307;23;20175;-93
2022/01/31 08:49:00;;;;;;;4.43;1.67;;;;;;;;;;6156607;23;20172;-91
2022/01/31 08:51:29;;;;;;;3.07;1.70;;;;;;;;;;6157240;23;20172;-92
2022/01/31 08:53:57;;;;;;;3.93;2.00;;;;;;;;;;6155062;23;20282;-93
2022/01/31 08:56:24;;;;;;;3.77;2.00;;;;;;;;;;6156503;23;20404;-92
2022/01/31 08:58:52;;;;;;;5.03;1.97;;;;;;;;;;6157044;23;20652;-92
2022/01/31 09:01:23;;;;;;;2.27;1.53;;;;;;;;;;6156505;23;20544;-92
2022/01/31 09:04:04;;;;;;;2.47;1.33;;;;;;;;;;6152841;23;20191;-91
2022/01/31 09:06:33;;;;;;;2.27;1.60;;;;;;;;;;6154401;23;20237;-92
2022/01/31 09:09:02;;;;;;;4.33;1.73;;;;;;;;;;6154961;23;20258;-91
2022/01/31 09:11:29;;;;;;;2.67;1.90;;;;;;;;;;6154248;23;20175;-92
2022/01/31 09:13:57;;;;;;;2.27;1.63;;;;;;;;;;6154700;23;20266;-92
2022/01/31 09:16:24;;;;;;;2.13;1.53;;;;;;;;;;6155168;23;20195;-92
2022/01/31 09:18:52;;;;;;;1.83;1.10;;;;;;;;;;6156899;23;20722;-92
2022/01/31 09:21:20;;;;;;;1.30;1.20;;;;;;;;;;6155920;23;20843;-92
2022/01/31 09:23:52;;;;;;;1.73;1.50;;;;;;;;;;6155975;23;20702;-92
2022/01/31 09:26:21;;;;;;;3.50;1.77;;;;;;;;;;6156317;23;20191;-91
2022/01/31 09:28:49;;;;;;;1.97;1.33;;;;;;;;;;6155993;23;20389;-92
2022/01/31 09:31:17;;;;;;;1.30;1.00;;;;;;;;;;6154966;23;20199;-92
2022/01/31 09:33:44;;;;;;;2.23;1.80;;;;;;;;;;6155659;23;20262;-91
2022/01/31 09:36:12;;;;;;;2.03;1.43;;;;;;;;;;6156054;23;20181;-92
2022/01/31 09:38:40;;;;;;;2.20;1.47;;;;;;;;;;6156228;23;20195;-92
2022/01/31 09:41:12;;;;;;;1.97;1.20;;;;;;;;;;6155644;23;20530;-92
2022/01/31 09:49:22;;;;;;;2.80;0.93;;;;;;;;;;6154531;23;20718;-92
2022/01/31 09:51:50;;;;;;;1.00;0.90;;;;;;;;;;6155591;23;20179;-92
2022/01/31 09:54:18;;;;;;;2.87;1.30;;;;;;;;;;6156144;23;20195;-92
2022/01/31 09:56:47;;;;;;;1.20;1.10;;;;;;;;;;6155177;23;20186;-92
2022/01/31 09:59:16;;;;;;;1.73;1.40;;;;;;;;;;6155446;23;20258;-91
2022/01/31 10:01:46;;;;;;;2.50;1.30;;;;;;;;;;6155364;23;20258;-92
2022/01/31 10:04:17;;;;;;;1.83;1.20;;;;;;;;;;6155325;23;20207;-93
2022/01/31 10:06:45;;;;;;;1.30;1.10;;;;;;;;;;6154151;23;20176;-93
2022/01/31 10:09:14;;;;;;;1.03;0.80;;;;;;;;;;6155034;23;20185;-91
2022/01/31 10:11:46;;;;;;;1.07;0.90;;;;;;;;;;6155499;23;20195;-92
2022/01/31 10:17:09;;;;;;;0.73;0.73;;;;;;;;;;6154958;23;20167;-92
2022/01/31 10:19:40;;;;;;;0.40;0.40;;;;;;;;;;6154927;23;20183;-92
2022/01/31 10:22:09;;;;;;;0.70;0.63;;;;;;;;;;6155192;23;20183;-93
2022/01/31 10:24:37;;;;;;;1.13;0.80;;;;;;;;;;6152983;23;20199;-92
2022/01/31 10:27:08;;;;;;;3.60;1.07;;;;;;;;;;6154518;23;20175;-92
2022/01/31 10:29:38;;;;;;;1.73;0.93;;;;;;;;;;6154907;23;20175;-91
2022/01/31 10:32:06;;;;;;;1.33;1.03;;;;;;;;;;6153213;23;20190;-92
2022/01/31 10:34:36;;;;;;;1.03;0.70;;;;;;;;;;6154558;23;20209;-93
2022/01/31 10:37:06;;;;;;;0.90;0.80;;;;;;;;;;6154942;23;20190;-92
2022/01/31 10:45:35;;;;;;;2.40;1.13;;;;;;;;;;6154293;23;20222;-92
2022/01/31 10:51:23;;;;;;;3.30;0.93;;;;;;;;;;6153800;23;20170;-92
2022/01/31 10:53:56;;;;;;;0.80;0.80;;;;;;;;;;6154092;23;20662;-92
2022/01/31 10:56:24;;;;;;;3.17;1.10;;;;;;;;;;6155434;23;20175;-91
2022/01/31 10:58:58;;;;;;;0.57;0.57;;;;;;;;;;6155157;23;20179;-92
2022/01/31 11:01:28;;;;;;;3.20;1.00;;;;;;;;;;6155290;23;20197;-92
2022/01/31 11:03:56;;;;;;;9.30;1.10;;;;;;;;;;6155400;23;20195;-92
2022/01/31 11:06:24;;;;;;;2.33;0.90;;;;;;;;;;6155665;23;20189;-92
2022/01/31 11:08:52;;;;;;;1.23;0.90;;;;;;;;;;6155246;23;20191;-92
2022/01/31 11:11:20;;;;;;;2.40;0.60;;;;;;;;;;6155462;23;20187;-92
2022/01/31 11:13:49;;;;;;;1.13;0.60;;;;;;;;;;6155975;23;20175;-92
2022/01/31 11:16:18;;;;;;;0.90;0.67;;;;;;;;;;6155608;23;20201;-92
2022/01/31 11:18:49;;;;;;;1.13;1.03;;;;;;;;;;6155358;23;20187;-93
2022/01/31 11:21:18;;;;;;;1.40;0.80;;;;;;;;;;6155276;23;20258;-93
2022/01/31 11:23:50;;;;;;;2.93;1.03;;;;;;;;;;6155289;23;20254;-92
2022/01/31 11:26:18;;;;;;;1.17;0.70;;;;;;;;;;6155603;23;20186;-91
2022/01/31 11:28:47;;;;;;;3.90;1.43;;;;;;;;;;6155586;23;20175;-92
2022/01/31 11:31:15;;;;;;;1.70;0.87;;;;;;;;;;6155172;23;20172;-92
2022/01/31 11:33:42;;;;;;;1.77;0.93;;;;;;;;;;6154824;23;20206;-92
2022/01/31 11:36:12;;;;;;;2.30;0.70;;;;;;;;;;6154941;23;20179;-92
2022/01/31 11:38:41;;;;;;;3.40;0.83;;;;;;;;;;6155527;23;20175;-92
2022/01/31 11:41:09;;;;;;;3.63;0.97;;;;;;;;;;6154996;23;20196;-92
2022/01/31 11:43:37;;;;;;;0.97;0.90;;;;;;;;;;6171875;23;20194;-93
2022/01/31 11:46:04;;;;;;;0.60;0.60;;;;;;;;;;6177772;23;20183;-92
2022/01/31 11:48:32;;;;;;;2.20;0.70;;;;;;;;;;6163228;23;20179;-91
2022/01/31 11:51:00;;;;;;;4.70;1.60;;;;;;;;;;6156884;23;20241;-92
2022/01/31 11:53:30;;;;;;;3.73;0.80;;;;;;;;;;6155930;23;20490;-91
2022/01/31 11:56:01;;;;;;;1.73;0.93;;;;;;;;;;6155577;23;20179;-91
2022/01/31 11:58:31;;;;;;;0.70;0.70;;;;;;;;;;6156066;23;20238;-92
2022/01/31 12:01:01;;;;;;;1.97;0.87;;;;;;;;;;6156633;23;20187;-91
2022/01/31 12:03:30;;;;;;;2.77;1.10;;;;;;;;;;6157016;23;20241;-91
2022/01/31 12:05:57;;;;;;;1.20;0.70;;;;;;;;;;6157688;23;20530;-91
2022/01/31 12:08:37;;;;;;;0.87;0.83;;;;;;;;;;6157952;23;20175;-92
2022/01/31 12:11:10;;;;;;;1.30;0.57;;;;;;;;;;6158852;23;20171;-92
2022/01/31 12:13:39;;;;;;;5.20;1.37;;;;;;;;;;6157455;23;20615;-92
2022/01/31 12:16:22;;;;;;;1.87;1.00;;;;;;;;;;6157979;23;20522;-92
2022/01/31 12:19:03;;;;;;;0.70;0.70;;;;;;;;;;6158105;23;20203;-92
2022/01/31 12:24:27;;;;;;;0.83;0.63;;;;;;;;;;6157184;23;20234;-91
2022/01/31 12:26:56;;;;;;;2.10;0.80;;;;;;;;;;6157647;23;20178;-91
2022/01/31 12:29:24;;;;;;;2.30;0.90;;;;;;;;;;6160527;23;20175;-93
2022/01/31 12:31:58;;;;;;;2.37;0.73;;;;;;;;;;6160543;23;20187;-92
2022/01/31 12:34:44;;;;;;;2.20;0.80;;;;;;;;;;6160734;23;20206;-93
2022/01/31 12:37:21;;;;;;;2.23;0.87;;;;;;;;;;6159222;23;20186;-91
2022/01/31 12:40:00;;;;;;;1.10;0.73;;;;;;;;;;6161310;23;20179;-92
2022/01/31 12:45:24;;;;;;;1.97;0.87;;;;;;;;;;6157297;23;20192;-92
2022/01/31 12:48:11;;;;;;;1.13;0.60;;;;;;;;;;6161810;23;20179;-92
2022/01/31 12:50:40;;;;;;;2.27;0.60;;;;;;;;;;6161298;23;20206;-91
2022/01/31 12:53:39;;;;;;;2.90;0.90;;;;;;;;;;6161294;23;20186;-91
2022/01/31 12:56:12;;;;;;;3.23;1.10;;;;;;;;;;6160640;23;20181;-91
2022/01/31 12:58:41;;;;;;;0.50;0.50;;;;;;;;;;6161661;23;20175;-92
2022/01/31 13:01:09;;;;;;;1.00;0.90;;;;;;;;;;6165740;23;20210;-93
2022/01/31 13:03:44;;;;;;;2.43;0.93;;;;;;;;;;6161516;23;20180;-92
2022/01/31 13:06:30;;;;;;;2.13;0.80;;;;;;;;;;6160026;23;20170;-93
2022/01/31 13:08:58;;;;;;;2.27;0.80;;;;;;;;;;6163813;23;20181;-93
2022/01/31 13:11:28;;;;;;;2.20;0.57;;;;;;;;;;6164721;23;20411;-93
2022/01/31 13:14:02;;;;;;;1.10;0.67;;;;;;;;;;6161571;23;20199;-93
2022/01/31 13:16:38;;;;;;;1.03;0.70;;;;;;;;;;6161456;23;20166;-92
2022/01/31 13:19:11;;;;;;;2.80;0.90;;;;;;;;;;6161384;23;20171;-93
2022/01/31 13:21:39;;;;;;;1.90;0.60;;;;;;;;;;6163184;23;20195;-92
2022/01/31 13:24:07;;;;;;;2.60;0.70;;;;;;;;;;6161028;23;20252;-93
2022/01/31 13:26:49;;;;;;;1.13;0.40;;;;;;;;;;6162625;23;20194;-92
2022/01/31 13:29:31;;;;;;;2.30;0.40;;;;;;;;;;6164102;23;20179;-93
2022/01/31 13:31:59;;;;;;;1.33;0.80;;;;;;;;;;6157967;23;20179;-91
2022/01/31 13:34:41;;;;;;;4.13;0.80;;;;;;;;;;6162760;23;20222;-93
2022/01/31 13:37:27;;;;;;;1.60;0.67;;;;;;;;;;6162976;23;20175;-93
2022/01/31 13:39:55;;;;;;;3.80;0.63;;;;;;;;;;6162368;23;20599;-92
2022/01/31 13:42:26;;;;;;;2.10;0.60;;;;;;;;;;6159839;23;20192;-93
2022/01/31 13:44:55;;;;;;;3.70;0.60;;;;;;;;;;6159717;23;20254;-93
2022/01/31 13:47:34;;;;;;;4.83;0.50;;;;;;;;;;6159203;23;20571;-92
2022/01/31 13:50:04;;;;;;;1.40;0.63;;;;;;;;;;6156432;23;20178;-92
2022/01/31 13:52:34;;;;;;;0.50;0.43;;;;;;;;;;6156749;23;20627;-92
2022/01/31 13:55:01;;;;;;;2.13;0.80;;;;;;;;;;6156433;23;20278;-92
2022/01/31 13:57:30;;;;;;;0.33;0.33;;;;;;;;;;6156493;23;20179;-91
2022/01/31 13:59:57;;;;;;;2.57;0.93;;;;;;;;;;6156379;23;20180;-91
2022/01/31 14:02:25;;;;;;;2.77;0.80;;;;;;;;;;6156270;23;20202;-93
2022/01/31 14:04:53;;;;;;;2.07;0.87;;;;;;;;;;6156485;23;20669;-92
2022/01/31 14:07:27;;;;;;;0.87;0.47;;;;;;;;;;6156094;23;20234;-91
2022/01/31 14:09:54;;;;;;;2.40;0.80;;;;;;;;;;6161083;23;20186;-91
2022/01/31 14:12:21;;;;;;;2.63;0.57;;;;;;;;;;6155811;23;20175;-92
2022/01/31 14:14:50;;;;;;;3.87;0.80;;;;;;;;;;6155708;23;20199;-92
2022/01/31 14:17:18;;;;;;;2.57;0.73;;;;;;;;;;6156293;23;20175;-91
2022/01/31 14:19:45;;;;;;;0.87;0.80;;;;;;;;;;6156402;23;20179;-92
2022/01/31 14:22:12;;;;;;;0.67;0.60;;;;;;;;;;6156575;23;20527;-90
2022/01/31 14:24:40;;;;;;;3.17;1.20;;;;;;;;;;6157185;23;20204;-91
2022/01/31 14:27:07;;;;;;;2.10;1.00;;;;;;;;;;6154653;23;20182;-91
2022/01/31 14:29:36;;;;;;;1.37;0.90;;;;;;;;;;6155699;23;20662;-94
2022/01/31 14:32:07;;;;;;;3.40;0.93;;;;;;;;;;6155573;23;20823;-92
2022/01/31 14:34:34;;;;;;;4.30;1.13;;;;;;;;;;6154885;23;20196;-93
2022/01/31 14:37:04;;;;;;;3.50;1.03;;;;;;;;;;6155532;23;20176;-91
2022/01/31 14:39:38;;;;;;;1.10;0.50;;;;;;;;;;6156431;23;20202;-93
2022/01/31 14:42:24;;;;;;;2.07;0.73;;;;;;;;;;6156658;23;20206;-92
2022/01/31 14:47:47;;;;;;;1.23;0.70;;;;;;;;;;6155947;23;20774;-93
2022/01/31 14:50:15;;;;;;;0.70;0.70;;;;;;;;;;6156387;23;20222;-93
2022/01/31 14:52:42;;;;;;;0.57;0.50;;;;;;;;;;6154967;23;20669;-93
2022/01/31 14:55:11;;;;;;;1.30;0.87;;;;;;;;;;6156563;23;20202;-93
2022/01/31 14:57:38;;;;;;;1.47;0.47;;;;;;;;;;6157313;23;20179;-92
2022/01/31 15:00:07;;;;;;;1.10;0.63;;;;;;;;;;6156065;23;20186;-93
2022/01/31 15:02:35;;;;;;;2.33;0.80;;;;;;;;;;6154472;23;20199;-90
2022/01/31 15:05:04;;;;;;;0.60;0.60;;;;;;;;;;6156715;23;20207;-92
2022/01/31 15:07:31;;;;;;;2.30;1.00;;;;;;;;;;6154897;23;20180;-93
2022/01/31 15:09:59;;;;;;;1.83;0.90;;;;;;;;;;6155280;23;20171;-93
2022/01/31 15:12:26;;;;;;;0.73;0.50;;;;;;;;;;6153078;23;20183;-92
2022/01/31 15:14:54;;;;;;;1.07;0.63;;;;;;;;;;6154796;23;20195;-94
2022/01/31 15:17:22;;;;;;;1.70;0.50;;;;;;;;;;6155370;23;20179;-91
2022/01/31 15:19:49;;;;;;;1.77;0.80;;;;;;;;;;6155541;23;20179;-93
2022/01/31 15:22:29;;;;;;;4.07;1.43;;;;;;;;;;6156667;23;20215;-93
2022/01/31 15:24:57;;;;;;;3.60;0.70;;;;;;;;;;6155631;23;20278;-93
2022/01/31 15:30:16;;;;;;;0.83;0.50;;;;;;;;;;6145152;23;20183;-93
2022/01/31 15:33:19;;;;;;;0.60;0.50;;;;;;;;;;6155677;23;20254;-92
2022/01/31 15:36:10;;;;;;;0.53;0.53;;;;;;;;;;6155314;23;20203;-92
2022/01/31 15:38:44;;;;;;;1.17;0.90;;;;;;;;;;6156782;23;20250;-92
2022/01/31 15:53:24;;;;;;;2.87;0.73;;;;;;;;;;6066312;23;20178;-93
2022/01/31 15:56:17;;;;;;;0.80;0.80;;;;;;;;;;6154586;23;20283;-93
2022/01/31 16:08:05;;;;;;;3.37;1.50;;;;;;;;;;5943746;24;20223;-93
2022/01/31 16:10:38;;;;;;;2.67;0.73;;;;;;;;;;5981393;24;20183;-93
2022/01/31 16:13:21;;;;;;;;;;;;;;;;;;;;;
2022/01/31 16:31:40;;;;;;;3.30;1.00;;;;;;;;;;6156774;23;20186;-92
2022/01/31 16:37:35;;;;;;;5.60;1.33;;;;;;;;;;6156277;23;20251;-92
2022/01/31 16:40:03;;;;;;;3.07;0.40;;;;;;;;;;6156017;23;20183;-92
2022/01/31 16:42:33;;;;;;;2.63;0.97;;;;;;;;;;6156372;23;20191;-92
2022/01/31 16:45:05;;;;;;;4.80;1.67;;;;;;;;;;6155121;23;20199;-92
2022/01/31 16:47:34;;;;;;;1.97;0.87;;;;;;;;;;6155436;23;20179;-92
2022/01/31 16:50:04;;;;;;;2.93;1.23;;;;;;;;;;6156011;23;20243;-92
2022/01/31 16:52:35;;;;;;;2.30;1.03;;;;;;;;;;6156627;23;20242;-93
2022/01/31 16:55:02;;;;;;;3.30;1.20;;;;;;;;;;6156436;23;20257;-92
2022/01/31 16:57:30;;;;;;;4.17;1.53;;;;;;;;;;6156479;23;20176;-92
2022/01/31 16:59:57;;;;;;;1.50;1.10;;;;;;;;;;6155817;23;20186;-92
2022/01/31 17:02:34;;;;;;;2.50;1.40;;;;;;;;;;6154751;23;20203;-92
2022/01/31 17:05:06;;;;;;;3.37;1.40;;;;;;;;;;6155805;23;20199;-92
2022/01/31 17:07:36;;;;;;;3.47;1.47;;;;;;;;;;6154456;23;20171;-93
2022/01/31 17:10:05;;;;;;;7.70;3.10;;;;;;;;;;6153720;23;20179;-92
2022/01/31 17:12:33;;;;;;;4.67;1.73;;;;;;;;;;6154118;23;20176;-92
2022/01/31 17:15:00;;;;;;;4.63;1.87;;;;;;;;;;6153868;23;20250;-92
2022/01/31 17:20:12;;;;;;;4.37;1.20;;;;;;;;;;6151615;23;20521;-92
2022/01/31 17:22:46;;;;;;;2.30;1.00;;;;;;;;;;6154237;23;20580;-92
2022/01/31 17:25:14;;;;;;;4.60;1.30;;;;;;;;;;6153473;23;20207;-93
2022/01/31 17:27:41;;;;;;;1.30;0.97;;;;;;;;;;6153635;23;20635;-92
2022/01/31 17:30:10;;;;;;;4.93;1.53;;;;;;;;;;6154077;23;20180;-92
2022/01/31 17:32:37;;;;;;;2.13;1.10;;;;;;;;;;6154052;23;20206;-92
2022/01/31 17:35:09;;;;;;;2.47;0.90;;;;;;;;;;6154312;23;20271;-92
2022/01/31 17:37:38;;;;;;;1.27;0.97;;;;;;;;;;6154703;23;20168;-92
2022/01/31 17:40:16;;;;;;;4.53;1.23;;;;;;;;;;6154604;23;20258;-93
2022/01/31 17:43:00;;;;;;;3.97;1.57;;;;;;;;;;6153830;23;20195;-93
2022/01/31 17:45:36;;;;;;;5.13;1.37;;;;;;;;;;6152282;23;20267;-93
2022/01/31 17:48:07;;;;;;;2.10;1.30;;;;;;;;;;6155120;23;20179;-93
2022/01/31 17:50:40;;;;;;;3.17;1.37;;;;;;;;;;6152253;23;20186;-93
2022/01/31 17:53:25;;;;;;;5.10;1.57;;;;;;;;;;6148634;23;20167;-93
2022/01/31 17:56:13;;;;;;;4.80;1.13;;;;;;;;;;6148589;23;20203;-93
2022/01/31 17:58:44;;;;;;;3.17;1.03;;;;;;;;;;6148007;23;20179;-93
2022/01/31 18:01:26;;;;;;;4.23;1.33;;;;;;;;;;6147646;23;20233;-93
2022/01/31 18:04:00;;;;;;;3.07;1.20;;;;;;;;;;6147311;23;20195;-93
2022/01/31 18:06:53;;;;;;;3.70;1.00;;;;;;;;;;6147256;23;20560;-93
2022/01/31 18:09:25;;;;;;;2.93;1.13;;;;;;;;;;6146551;23;20187;-93
2022/01/31 18:11:56;;;;;;;4.00;1.20;;;;;;;;;;6147395;23;20183;-93
2022/01/31 18:14:28;;;;;;;2.20;1.23;;;;;;;;;;6146805;23;20278;-92
2022/01/31 18:17:07;;;;;;;3.40;1.07;;;;;;;;;;6146238;23;20179;-93
2022/01/31 18:19:35;;;;;;;6.23;1.27;;;;;;;;;;6146129;23;20175;-93
2022/01/31 18:22:12;;;;;;;3.87;2.00;;;;;;;;;;6146948;23;20186;-93
2022/01/31 18:24:55;;;;;;;2.57;1.60;;;;;;;;;;6146740;23;20225;-93
2022/01/31 18:27:30;;;;;;;4.17;1.37;;;;;;;;;;6146743;23;20198;-93
2022/01/31 18:29:57;;;;;;;4.10;1.13;;;;;;;;;;6146811;23;20179;-93
2022/01/31 18:32:43;;;;;;;1.77;0.70;;;;;;;;;;6146841;23;20179;-93
2022/01/31 18:35:25;;;;;;;5.80;1.10;;;;;;;;;;6146896;23;20230;-94
2022/01/31 18:38:07;;;;;;;3.20;1.43;;;;;;;;;;6146791;23;20183;-92
2022/01/31 18:40:41;;;;;;;2.73;1.10;;;;;;;;;;6147336;23;20222;-92
2022/01/31 18:43:21;;;;;;;1.87;0.53;;;;;;;;;;6147422;23;20198;-93
2022/01/31 18:45:52;;;;;;;6.57;1.73;;;;;;;;;;6146442;23;20226;-92
2022/01/31 18:51:33;;;;;;;3.40;1.10;;;;;;;;;;6147425;23;20528;-93
2022/01/31 18:54:17;;;;;;;5.80;1.10;;;;;;;;;;6128288;23;20191;-94
2022/01/31 18:56:47;;;;;;;1.03;0.93;;;;;;;;;;6146897;23;20175;-95
2022/01/31 18:59:30;;;;;;;3.40;1.40;;;;;;;;;;6147515;23;20271;-94
2022/01/31 19:16:30;;;;;;;1.90;0.80;;;;;;;;;;6142254;23;20227;-95
2022/01/31 19:19:18;;;;;;;1.20;0.80;;;;;;;;;;6147254;23;20211;-94
2022/01/31 19:28:12;;;;;;;3.67;1.97;;;;;;;;;;6099689;23;20271;-93
2022/01/31 19:31:14;;;;;;;;;;;;;;;;;;;;;
2022/01/31 19:33:55;;;;;;;1.63;0.80;;;;;;;;;;6147618;23;20183;-94
2022/01/31 23:21:02;;;;;;;0.50;0.50;;;;;;;;;;5913645;24;20245;-92
2022/01/31 23:43:10;;;;;;;1.73;0.80;;;;;;;;;;6133132;23;20463;-91
2022/01/31 23:51:55;;;;;;;0.53;0.27;;;;;;;;;;6132959;23;20248;-92
2022/01/31 23:54:27;;;;;;;0.50;0.50;;;;;;;;;;6130168;23;20235;-91
